Time;durP1;ratioP1;P1;durP2;ratioP2;P2;SDS_P1;SDS_P2;PMS_P1;PMS_P2;Temp;Humidity;BMP_temperature;BMP_pressure;BME280_temperature;BME280_humidity;BME280_pressure;Samples;Min_cycle;Max_cycle;Signal;HPM_P1;HPM_P2
2022/06/15 00:01:13;;;;;;;0.90;0.32;;;16.70;56.50;;;;;;5060929;28;20040;-82
2022/06/15 00:03:40;;;;;;;1.15;0.50;;;16.70;56.70;;;;;;5077111;28;20059;-82
2022/06/15 00:06:14;;;;;;;4.28;0.50;;;16.60;56.80;;;;;;5076989;28;20074;-81
2022/06/15 00:08:44;;;;;;;2.25;0.30;;;16.60;57.00;;;;;;5093747;28;20433;-81
2022/06/15 00:11:15;;;;;;;1.38;0.50;;;16.50;57.10;;;;;;5093947;28;20056;-84
2022/06/15 00:13:43;;;;;;;1.35;0.40;;;16.50;57.20;;;;;;5094121;28;20071;-85
2022/06/15 00:16:11;;;;;;;1.58;0.50;;;16.40;57.20;;;;;;5077184;28;20044;-84
2022/06/15 00:18:39;;;;;;;1.08;0.50;;;16.40;57.30;;;;;;5077112;28;20147;-85
2022/06/15 00:21:06;;;;;;;1.33;0.40;;;16.40;57.50;;;;;;5077592;28;20048;-84
2022/06/15 00:23:35;;;;;;;3.50;0.63;;;16.40;57.60;;;;;;5077811;28;20040;-85
2022/06/15 00:26:04;;;;;;;2.28;0.50;;;16.30;57.70;;;;;;5094727;28;20139;-85
2022/06/15 00:28:31;;;;;;;1.05;0.43;;;16.30;57.90;;;;;;5058224;28;20063;-85
2022/06/15 00:30:58;;;;;;;2.15;0.50;;;16.30;58.00;;;;;;5073977;28;20070;-85
2022/06/15 00:33:31;;;;;;;1.13;0.40;;;16.20;58.00;;;;;;5074046;28;20049;-85
2022/06/15 00:36:02;;;;;;;1.58;0.40;;;16.20;58.10;;;;;;5057519;28;20040;-84
2022/06/15 00:38:38;;;;;;;1.42;0.40;;;16.20;58.20;;;;;;5080048;28;20036;-84
2022/06/15 00:41:07;;;;;;;2.33;0.50;;;16.20;58.30;;;;;;5077361;28;20055;-85
2022/06/15 00:43:42;;;;;;;2.22;0.50;;;16.20;58.40;;;;;;5057693;28;20496;-85
2022/06/15 00:46:31;;;;;;;0.95;0.60;;;16.10;58.50;;;;;;5056964;28;20048;-84
2022/06/15 00:49:24;;;;;;;2.03;0.40;;;16.10;58.50;;;;;;5063922;28;20054;-84
2022/06/15 00:51:59;;;;;;;1.50;0.50;;;16.10;58.80;;;;;;5094024;28;20131;-84
2022/06/15 00:54:26;;;;;;;2.80;0.68;;;16.00;59.00;;;;;;5077098;28;20054;-84
2022/06/15 00:56:54;;;;;;;2.25;0.50;;;16.00;59.00;;;;;;5076931;28;20047;-84
2022/06/15 00:59:49;;;;;;;2.80;0.57;;;15.90;59.00;;;;;;5076937;28;20066;-84
2022/06/15 01:02:16;;;;;;;1.48;0.50;;;15.90;59.10;;;;;;5077130;28;20052;-85
2022/06/15 01:04:48;;;;;;;1.90;0.40;;;15.90;59.20;;;;;;5060828;28;20075;-84
2022/06/15 01:07:31;;;;;;;2.53;0.60;;;15.90;59.30;;;;;;5077177;28;20043;-85
2022/06/15 01:10:29;;;;;;;1.15;0.43;;;15.80;59.40;;;;;;5093566;28;20052;-85
2022/06/15 01:13:05;;;;;;;1.77;0.50;;;15.80;59.50;;;;;;5093401;28;20040;-85
2022/06/15 01:15:50;;;;;;;1.95;0.60;;;15.70;59.60;;;;;;5076796;28;20120;-84
2022/06/15 01:18:36;;;;;;;1.63;0.57;;;15.70;59.80;;;;;;5081684;28;20126;-84
2022/06/15 01:21:05;;;;;;;1.15;0.50;;;15.70;60.00;;;;;;5056595;28;20048;-84
2022/06/15 01:24:03;;;;;;;2.58;0.68;;;15.70;60.10;;;;;;5092430;28;20052;-84
2022/06/15 01:27:01;;;;;;;1.30;0.55;;;15.70;60.20;;;;;;5085592;28;20052;-85
2022/06/15 01:29:46;;;;;;;1.58;0.50;;;15.60;60.30;;;;;;5108618;28;20040;-84
2022/06/15 01:32:28;;;;;;;4.22;0.50;;;15.50;60.30;;;;;;5093152;28;20048;-85
2022/06/15 01:35:35;;;;;;;2.80;0.50;;;15.50;60.40;;;;;;5093084;28;20048;-85
2022/06/15 01:38:21;;;;;;;1.98;0.57;;;15.50;60.50;;;;;;5074807;28;20499;-85
2022/06/15 01:40:59;;;;;;;1.85;0.50;;;15.50;60.70;;;;;;5092756;28;20101;-85
2022/06/15 01:43:31;;;;;;;1.60;0.50;;;15.40;60.70;;;;;;5075981;28;20054;-85
2022/06/15 01:45:59;;;;;;;2.97;0.68;;;15.40;60.70;;;;;;5092730;28;20052;-85
2022/06/15 01:48:30;;;;;;;3.53;0.63;;;15.40;60.70;;;;;;5059648;28;20059;-84
2022/06/15 01:51:17;;;;;;;1.80;0.60;;;15.40;60.90;;;;;;5064058;28;20097;-84
2022/06/15 01:54:08;;;;;;;2.47;0.50;;;15.40;61.00;;;;;;5075437;28;20067;-84
2022/06/15 01:56:43;;;;;;;1.30;0.40;;;15.30;61.10;;;;;;5090988;28;20048;-81
2022/06/15 01:59:22;;;;;;;1.95;0.55;;;15.30;61.20;;;;;;5077561;28;20052;-80
2022/06/15 02:01:57;;;;;;;1.88;0.55;;;15.20;61.30;;;;;;5090849;28;20484;-81
2022/06/15 02:04:39;;;;;;;1.55;0.60;;;15.20;61.40;;;;;;5089448;28;20092;-81
2022/06/15 02:07:21;;;;;;;0.93;0.45;;;15.30;61.50;;;;;;5090374;28;20500;-81
2022/06/15 02:10:03;;;;;;;1.98;0.63;;;15.20;61.50;;;;;;5090117;28;20055;-81
2022/06/15 02:12:38;;;;;;;1.60;0.50;;;15.20;61.60;;;;;;5061120;28;20098;-81
2022/06/15 02:15:09;;;;;;;1.45;0.50;;;15.10;61.70;;;;;;5090903;28;20071;-81
2022/06/15 02:17:41;;;;;;;2.63;0.52;;;15.10;61.70;;;;;;5079134;28;20048;-81
2022/06/15 02:20:18;;;;;;;2.22;0.70;;;15.10;61.80;;;;;;5098495;28;20050;-81
2022/06/15 02:22:49;;;;;;;1.60;0.50;;;15.10;62.00;;;;;;5060380;28;20048;-81
2022/06/15 02:25:22;;;;;;;2.33;0.60;;;15.10;62.00;;;;;;5073482;28;20040;-81
2022/06/15 02:27:52;;;;;;;1.52;0.50;;;15.00;62.00;;;;;;5076348;28;20043;-81
2022/06/15 02:30:24;;;;;;;1.08;0.43;;;15.00;62.10;;;;;;5057164;28;20040;-81
2022/06/15 02:33:09;;;;;;;1.58;0.50;;;15.00;62.20;;;;;;5090436;28;20408;-82
2022/06/15 02:35:38;;;;;;;1.90;0.73;;;15.00;62.30;;;;;;5073372;28;20060;-82
2022/06/15 02:38:09;;;;;;;1.73;0.65;;;15.00;63.00;;;;;;5087221;28;20473;-81
2022/06/15 02:40:36;;;;;;;1.05;0.50;;;14.90;62.40;;;;;;5057317;28;20478;-81
2022/06/15 02:43:04;;;;;;;2.05;0.60;;;14.90;62.50;;;;;;5057967;28;20066;-81
2022/06/15 02:45:39;;;;;;;2.28;0.70;;;14.90;62.60;;;;;;5060285;28;20052;-82
2022/06/15 02:48:09;;;;;;;0.80;0.40;;;14.90;62.70;;;;;;5074400;28;20573;-82
2022/06/15 02:50:59;;;;;;;1.27;0.50;;;14.80;62.70;;;;;;5073121;28;20055;-82
2022/06/15 02:53:30;;;;;;;1.73;0.60;;;14.80;62.80;;;;;;5079576;28;20102;-82
2022/06/15 02:56:00;;;;;;;1.55;0.40;;;14.80;62.80;;;;;;5092829;28;20040;-83
2022/06/15 02:58:31;;;;;;;1.88;0.60;;;14.80;62.90;;;;;;5093083;28;20040;-82
2022/06/15 03:01:01;;;;;;;1.40;0.57;;;14.80;62.90;;;;;;5082984;28;20044;-80
2022/06/15 03:03:33;;;;;;;1.95;0.47;;;14.80;63.10;;;;;;5075632;28;20052;-86
2022/06/15 03:06:18;;;;;;;2.25;0.65;;;14.80;63.10;;;;;;5081967;28;20105;-86
2022/06/15 03:08:49;;;;;;;2.75;0.70;;;14.80;63.30;;;;;;5096380;28;20040;-85
2022/06/15 03:11:46;;;;;;;3.60;0.60;;;14.70;63.20;;;;;;5074118;28;20140;-85
2022/06/15 03:14:16;;;;;;;3.55;0.50;;;14.70;63.30;;;;;;5063259;28;20048;-85
2022/06/15 03:16:49;;;;;;;1.95;0.80;;;14.70;63.40;;;;;;5095869;28;20070;-85
2022/06/15 03:19:19;;;;;;;1.52;0.43;;;14.70;63.40;;;;;;5079430;28;20052;-85
2022/06/15 03:21:51;;;;;;;2.55;0.50;;;14.70;63.50;;;;;;5064160;28;20870;-85
2022/06/15 03:24:20;;;;;;;2.53;0.60;;;14.70;63.60;;;;;;5062289;28;20051;-85
2022/06/15 03:26:52;;;;;;;1.95;0.70;;;14.70;63.70;;;;;;5063104;28;20109;-85
2022/06/15 03:29:23;;;;;;;3.10;0.65;;;14.60;63.70;;;;;;5058551;28;20454;-85
2022/06/15 03:31:54;;;;;;;2.30;0.70;;;14.60;63.80;;;;;;5079297;28;20040;-85
2022/06/15 03:34:25;;;;;;;2.55;0.52;;;14.60;63.90;;;;;;5046929;28;20147;-85
2022/06/15 03:36:52;;;;;;;1.08;0.45;;;14.60;63.90;;;;;;5062510;28;20437;-85
2022/06/15 03:39:19;;;;;;;2.92;0.57;;;14.60;64.60;;;;;;5062147;28;20101;-85
2022/06/15 03:41:49;;;;;;;2.45;0.65;;;14.60;64.10;;;;;;5044836;28;20044;-85
2022/06/15 03:44:16;;;;;;;2.95;0.50;;;14.60;64.10;;;;;;5078530;28;20117;-85
2022/06/15 03:46:43;;;;;;;1.50;0.60;;;14.60;64.20;;;;;;5061900;28;20055;-85
2022/06/15 03:49:24;;;;;;;1.13;0.60;;;14.60;64.20;;;;;;5050809;28;20059;-85
2022/06/15 03:51:51;;;;;;;1.67;0.50;;;14.60;64.20;;;;;;5061646;28;20046;-85
2022/06/15 03:54:22;;;;;;;0.93;0.55;;;14.60;64.30;;;;;;5061380;28;20051;-85
2022/06/15 03:56:50;;;;;;;2.85;0.60;;;14.60;64.40;;;;;;5062373;28;20044;-85
2022/06/15 03:59:23;;;;;;;0.88;0.40;;;14.60;64.40;;;;;;5062944;28;20036;-85
2022/06/15 04:01:54;;;;;;;1.50;0.60;;;14.60;65.20;;;;;;5059636;28;20040;-85
2022/06/15 04:04:22;;;;;;;2.67;0.35;;;14.60;64.50;;;;;;5080133;28;20107;-86
2022/06/15 04:06:50;;;;;;;2.13;0.40;;;14.60;64.60;;;;;;5061935;28;20090;-85
2022/06/15 04:09:21;;;;;;;2.23;0.77;;;14.60;64.70;;;;;;5079204;28;20040;-85
2022/06/15 04:11:58;;;;;;;0.93;0.40;;;14.60;64.70;;;;;;5079492;28;20047;-85
2022/06/15 04:14:31;;;;;;;1.85;0.50;;;14.50;64.60;;;;;;5077693;28;20040;-85
2022/06/15 04:17:21;;;;;;;3.00;0.68;;;14.60;64.80;;;;;;5070908;28;20048;-85
2022/06/15 04:20:36;;;;;;;3.15;0.40;;;14.60;65.40;;;;;;5060630;28;20056;-85
2022/06/15 04:23:15;;;;;;;1.65;0.88;;;14.60;64.80;;;;;;5084588;28;20048;-85
2022/06/15 04:25:51;;;;;;;3.40;0.60;;;14.60;64.80;;;;;;5094532;28;20075;-85
2022/06/15 04:28:32;;;;;;;1.23;0.60;;;14.60;64.90;;;;;;5074315;28;20094;-85
2022/06/15 04:31:07;;;;;;;1.33;0.50;;;14.60;64.80;;;;;;5085317;28;20086;-85
2022/06/15 04:33:38;;;;;;;1.33;0.50;;;14.70;64.80;;;;;;5061131;28;20048;-84
2022/06/15 04:36:07;;;;;;;1.88;0.50;;;14.80;64.50;;;;;;5073144;28;20044;-81
2022/06/15 04:38:37;;;;;;;1.60;0.60;;;14.90;64.50;;;;;;5059519;28;20090;-81
2022/06/15 04:41:07;;;;;;;1.00;0.38;;;14.90;64.50;;;;;;5070388;28;20051;-81
2022/06/15 04:43:34;;;;;;;3.38;0.50;;;14.90;64.50;;;;;;5089256;28;20063;-81
2022/06/15 04:46:03;;;;;;;1.77;0.40;;;14.90;64.60;;;;;;5074727;28;20051;-81
2022/06/15 04:48:31;;;;;;;1.25;0.45;;;15.00;64.70;;;;;;5059610;28;20059;-81
2022/06/15 04:51:29;;;;;;;1.88;0.40;;;15.00;64.60;;;;;;5058928;28;20064;-81
2022/06/15 04:53:59;;;;;;;2.88;0.65;;;15.10;64.50;;;;;;5081895;28;20048;-81
2022/06/15 04:56:26;;;;;;;1.30;0.40;;;15.10;64.50;;;;;;5086631;28;20707;-81
2022/06/15 04:58:54;;;;;;;1.77;0.50;;;15.20;64.50;;;;;;5057023;28;20040;-81
2022/06/15 05:01:21;;;;;;;1.50;0.38;;;15.20;64.40;;;;;;5080675;28;20055;-81
2022/06/15 05:03:48;;;;;;;2.05;0.75;;;15.30;64.40;;;;;;5075009;28;20040;-81
2022/06/15 05:06:29;;;;;;;1.00;0.40;;;15.30;64.30;;;;;;5075846;28;20089;-81
2022/06/15 05:08:57;;;;;;;1.55;0.57;;;15.40;64.20;;;;;;5089170;28;20476;-81
2022/06/15 05:11:27;;;;;;;1.70;0.40;;;15.50;64.20;;;;;;5075467;28;20040;-81
2022/06/15 05:13:55;;;;;;;2.70;0.50;;;15.60;64.30;;;;;;5073460;28;20132;-81
2022/06/15 05:16:26;;;;;;;1.88;1.27;;;15.60;64.10;;;;;;5058376;28;20349;-81
2022/06/15 05:18:54;;;;;;;1.40;0.40;;;15.70;64.00;;;;;;5058155;28;20145;-80
2022/06/15 05:21:27;;;;;;;1.65;0.50;;;15.80;63.90;;;;;;5075368;28;20040;-81
2022/06/15 05:23:55;;;;;;;1.65;0.47;;;15.90;63.90;;;;;;5078488;28;20504;-84
2022/06/15 05:26:58;;;;;;;1.85;0.30;;;16.00;63.70;;;;;;5065342;28;20044;-84
2022/06/15 05:29:26;;;;;;;1.30;0.45;;;16.10;63.60;;;;;;5075210;28;20086;-84
2022/06/15 05:31:59;;;;;;;2.50;0.82;;;16.20;63.40;;;;;;5085051;28;20048;-84
2022/06/15 05:34:27;;;;;;;1.58;0.40;;;16.30;63.30;;;;;;5091250;28;20048;-84
2022/06/15 05:36:55;;;;;;;2.40;0.65;;;16.40;63.20;;;;;;5053428;28;20048;-84
2022/06/15 05:39:23;;;;;;;1.75;0.55;;;16.50;63.00;;;;;;5086744;28;20105;-85
2022/06/15 05:41:50;;;;;;;1.70;0.50;;;16.50;62.80;;;;;;5075766;28;20064;-83
2022/06/15 05:46:58;;;;;;;1.90;0.60;;;16.70;62.60;;;;;;5091597;28;20048;-85
2022/06/15 05:49:45;;;;;;;2.25;0.40;;;16.80;62.40;;;;;;5090993;28;20043;-86
2022/06/15 05:52:16;;;;;;;1.55;0.47;;;17.00;62.30;;;;;;5074495;28;20044;-86
2022/06/15 05:54:46;;;;;;;3.45;0.50;;;17.00;62.20;;;;;;5075041;28;20044;-85
2022/06/15 05:57:19;;;;;;;1.55;0.50;;;17.20;62.00;;;;;;5073478;28;20048;-85
2022/06/15 05:59:48;;;;;;;1.88;0.50;;;17.30;62.00;;;;;;5083739;28;20135;-85
2022/06/15 06:02:21;;;;;;;2.35;0.40;;;17.30;61.70;;;;;;5090655;28;20052;-89
2022/06/15 06:04:49;;;;;;;0.93;0.30;;;17.40;61.60;;;;;;5075473;28;20127;-88
2022/06/15 06:07:20;;;;;;;1.65;0.40;;;17.60;61.50;;;;;;5069437;28;20047;-88
2022/06/15 06:09:47;;;;;;;0.93;0.47;;;17.70;61.30;;;;;;5058691;28;20126;-87
2022/06/15 06:12:15;;;;;;;3.13;0.60;;;17.80;61.20;;;;;;5066180;28;20041;-89
2022/06/15 06:14:42;;;;;;;2.65;0.50;;;17.90;61.00;;;;;;5074916;28;20141;-89
2022/06/15 06:17:09;;;;;;;2.35;0.50;;;17.90;60.80;;;;;;5067330;28;20116;-89
2022/06/15 06:19:37;;;;;;;2.42;0.50;;;18.00;60.60;;;;;;5066391;28;20049;-88
2022/06/15 06:22:05;;;;;;;2.15;0.60;;;18.10;60.50;;;;;;5070976;28;20044;-89
2022/06/15 06:24:32;;;;;;;1.40;0.60;;;18.20;60.30;;;;;;5074951;28;20036;-89
2022/06/15 06:27:00;;;;;;;1.55;0.40;;;18.30;60.10;;;;;;5058415;28;20450;-88
2022/06/15 06:29:29;;;;;;;1.23;0.40;;;18.40;60.00;;;;;;5087837;28;20066;-88
2022/06/15 06:32:00;;;;;;;2.83;0.50;;;18.40;60.00;;;;;;5069570;28;20400;-89
2022/06/15 06:34:31;;;;;;;1.17;0.30;;;18.50;59.80;;;;;;5072084;28;20500;-88
2022/06/15 06:37:05;;;;;;;1.67;0.45;;;18.60;59.60;;;;;;5091357;28;20147;-87
2022/06/15 06:39:35;;;;;;;0.88;0.40;;;18.80;59.40;;;;;;5057514;28;20045;-88
2022/06/15 06:42:04;;;;;;;0.93;0.32;;;18.80;59.30;;;;;;5075300;28;20051;-89
2022/06/15 06:44:34;;;;;;;1.33;0.60;;;18.90;59.10;;;;;;5076157;28;20048;-89
2022/06/15 06:47:06;;;;;;;2.67;0.43;;;19.00;59.60;;;;;;5075381;28;20109;-89
2022/06/15 06:49:37;;;;;;;1.20;0.40;;;19.10;58.90;;;;;;5059539;28;20433;-89
2022/06/15 06:52:05;;;;;;;1.83;0.40;;;19.20;58.70;;;;;;5076254;28;20047;-89
2022/06/15 06:54:32;;;;;;;2.28;0.40;;;19.20;58.60;;;;;;5076975;28;20523;-89
2022/06/15 06:56:59;;;;;;;2.13;0.40;;;19.30;58.50;;;;;;5088526;28;20098;-88
2022/06/15 06:59:27;;;;;;;1.10;0.40;;;19.40;58.30;;;;;;5075175;28;20048;-88
2022/06/15 07:01:55;;;;;;;1.75;0.45;;;19.50;58.20;;;;;;5074779;28;20138;-87
2022/06/15 07:04:22;;;;;;;1.77;0.38;;;19.70;58.10;;;;;;5074854;28;20058;-88
2022/06/15 07:06:50;;;;;;;1.92;0.30;;;19.70;57.90;;;;;;5089498;28;20056;-88
2022/06/15 07:09:18;;;;;;;2.03;0.40;;;19.80;57.70;;;;;;5038458;28;20045;-88
2022/06/15 07:11:47;;;;;;;1.92;0.50;;;20.00;57.50;;;;;;5058399;28;20084;-88
2022/06/15 07:14:14;;;;;;;0.90;0.40;;;20.00;57.20;;;;;;5074735;28;20079;-88
2022/06/15 07:16:42;;;;;;;1.33;0.50;;;20.00;57.10;;;;;;5034868;28;20044;-88
2022/06/15 07:19:32;;;;;;;1.52;0.30;;;20.00;57.00;;;;;;5086682;28;20524;-88
2022/06/15 07:21:58;;;;;;;1.67;0.40;;;20.10;56.90;;;;;;5071177;28;20044;-84
2022/06/15 07:24:26;;;;;;;1.55;0.40;;;20.20;56.60;;;;;;5072915;28;20056;-85
2022/06/15 07:26:53;;;;;;;1.48;0.30;;;20.30;56.30;;;;;;5054671;28;20052;-83
2022/06/15 07:29:22;;;;;;;1.15;0.30;;;20.50;56.10;;;;;;5038006;28;20044;-85
2022/06/15 07:31:53;;;;;;;1.80;0.32;;;20.60;55.80;;;;;;5073402;28;20044;-88
2022/06/15 07:34:21;;;;;;;1.48;0.50;;;20.70;55.50;;;;;;5084823;28;20044;-87
2022/06/15 07:36:49;;;;;;;2.30;0.30;;;20.80;55.30;;;;;;5068853;28;20546;-85
2022/06/15 07:39:19;;;;;;;1.60;0.50;;;20.90;55.10;;;;;;5073555;28;20056;-85
2022/06/15 07:41:47;;;;;;;1.33;0.38;;;21.00;54.90;;;;;;5073413;28;20101;-83
2022/06/15 07:44:16;;;;;;;0.98;0.40;;;21.10;54.80;;;;;;5073164;28;20067;-84
2022/06/15 07:46:43;;;;;;;1.98;0.30;;;21.20;54.50;;;;;;5073477;28;20408;-83
2022/06/15 07:52:02;;;;;;;1.02;0.20;;;21.30;53.90;;;;;;5079938;28;20040;-82
2022/06/15 07:54:30;;;;;;;1.73;0.30;;;21.40;53.70;;;;;;5093975;28;20079;-82
2022/06/15 07:56:57;;;;;;;1.58;0.40;;;21.40;53.60;;;;;;5057071;28;20131;-83
2022/06/15 07:59:24;;;;;;;1.00;0.30;;;21.60;53.40;;;;;;5051210;28;20044;-83
2022/06/15 08:01:51;;;;;;;1.33;0.30;;;21.70;53.30;;;;;;5061194;28;20044;-86
2022/06/15 08:04:19;;;;;;;2.50;0.40;;;21.70;53.00;;;;;;5095046;28;20054;-88
2022/06/15 08:06:48;;;;;;;1.23;0.30;;;21.80;52.80;;;;;;5062353;28;20146;-88
2022/06/15 08:09:16;;;;;;;2.28;0.60;;;21.80;52.70;;;;;;5079766;28;20044;-82
2022/06/15 08:12:11;;;;;;;1.45;0.25;;;21.90;53.10;;;;;;5082759;28;20487;-82
2022/06/15 08:14:37;;;;;;;0.95;0.20;;;22.00;52.40;;;;;;5114489;28;20055;-86
2022/06/15 08:17:06;;;;;;;2.55;0.32;;;22.00;52.30;;;;;;5090733;28;20068;-81
2022/06/15 08:19:42;;;;;;;2.03;0.30;;;22.10;52.10;;;;;;5093509;28;20076;-82
2022/06/15 08:22:10;;;;;;;1.20;0.30;;;22.20;52.00;;;;;;5093870;28;20352;-83
2022/06/15 08:24:39;;;;;;;1.65;0.40;;;22.30;51.80;;;;;;5076090;28;20404;-82
2022/06/15 08:27:09;;;;;;;3.05;0.30;;;22.30;51.50;;;;;;5093860;28;20443;-81
2022/06/15 08:29:37;;;;;;;0.60;0.30;;;22.30;51.40;;;;;;5093027;28;20085;-82
2022/06/15 08:32:05;;;;;;;1.33;0.40;;;22.40;51.10;;;;;;5076739;28;20036;-82
2022/06/15 08:34:36;;;;;;;1.42;0.40;;;22.40;50.90;;;;;;5074515;28;20495;-80
2022/06/15 08:37:06;;;;;;;1.73;0.40;;;22.50;50.80;;;;;;5060950;28;20048;-79
2022/06/15 08:39:34;;;;;;;1.45;0.30;;;22.50;50.70;;;;;;5076886;28;20044;-80
2022/06/15 08:42:15;;;;;;;0.95;0.30;;;22.60;50.50;;;;;;5093230;28;20147;-80
2022/06/15 08:44:51;;;;;;;0.52;0.20;;;22.70;50.40;;;;;;5093278;28;20043;-82
2022/06/15 08:47:28;;;;;;;1.63;0.40;;;22.80;50.30;;;;;;5092860;28;20051;-80
2022/06/15 08:50:08;;;;;;;1.73;0.35;;;22.90;50.20;;;;;;5075965;28;20072;-79
2022/06/15 08:52:43;;;;;;;2.55;0.40;;;22.90;50.00;;;;;;5092789;28;20048;-79
2022/06/15 08:55:22;;;;;;;1.48;0.30;;;23.00;50.00;;;;;;5093144;28;20047;-80
2022/06/15 08:58:05;;;;;;;1.13;0.40;;;23.10;50.00;;;;;;5092886;28;20040;-80
2022/06/15 09:00:37;;;;;;;1.05;0.40;;;23.20;49.70;;;;;;5075580;28;20140;-83
2022/06/15 09:03:05;;;;;;;1.23;0.25;;;23.10;49.60;;;;;;5075963;28;20048;-83
2022/06/15 09:05:58;;;;;;;1.85;0.40;;;23.20;49.70;;;;;;5076217;28;20476;-80
2022/06/15 09:09:05;;;;;;;1.10;0.40;;;23.20;49.50;;;;;;5086940;28;20044;-79
2022/06/15 09:11:51;;;;;;;1.88;0.50;;;23.40;49.60;;;;;;5075664;28;20471;-83
2022/06/15 09:14:51;;;;;;;1.58;0.52;;;23.50;49.40;;;;;;5093764;28;20033;-80
2022/06/15 09:17:22;;;;;;;1.63;0.50;;;23.50;49.00;;;;;;5091437;28;20105;-81
2022/06/15 09:20:13;;;;;;;1.63;0.33;;;23.50;49.10;;;;;;5092221;28;20058;-81
2022/06/15 09:22:47;;;;;;;1.45;0.50;;;23.50;48.90;;;;;;5078377;28;20420;-83
2022/06/15 09:25:34;;;;;;;1.02;0.50;;;23.50;48.90;;;;;;5092280;28;20071;-81
2022/06/15 09:28:20;;;;;;;2.63;0.40;;;23.60;48.70;;;;;;5092134;28;20060;-83
2022/06/15 09:31:01;;;;;;;0.45;0.20;;;23.60;48.40;;;;;;5073403;28;20049;-82
2022/06/15 09:33:35;;;;;;;0.98;0.40;;;23.70;48.30;;;;;;5064019;28;20469;-82
2022/06/15 09:36:17;;;;;;;1.17;0.35;;;23.80;48.00;;;;;;5068569;28;20164;-85
2022/06/15 09:38:44;;;;;;;1.98;0.50;;;23.80;47.70;;;;;;5075260;28;20479;-86
2022/06/15 09:41:20;;;;;;;0.70;0.30;;;23.70;47.80;;;;;;5059409;28;20054;-86
2022/06/15 09:44:18;;;;;;;1.45;0.38;;;23.80;47.60;;;;;;5075324;28;20408;-85
2022/06/15 09:47:26;;;;;;;1.15;0.35;;;23.80;47.30;;;;;;5074902;28;20129;-86
2022/06/15 09:50:04;;;;;;;0.98;0.40;;;23.90;47.10;;;;;;5086673;28;20568;-86
2022/06/15 09:52:41;;;;;;;1.75;0.40;;;23.90;47.20;;;;;;5091312;28;20134;-84
2022/06/15 09:55:30;;;;;;;0.93;0.30;;;24.10;47.10;;;;;;5091785;28;20072;-84
2022/06/15 09:57:58;;;;;;;1.63;0.30;;;24.20;46.80;;;;;;5075101;28;20048;-84
2022/06/15 10:00:25;;;;;;;3.30;0.40;;;24.30;46.60;;;;;;5075551;28;20047;-86
2022/06/15 10:02:58;;;;;;;1.52;0.40;;;24.20;46.60;;;;;;5092832;28;20526;-89
2022/06/15 10:05:33;;;;;;;3.35;0.40;;;24.30;46.50;;;;;;5093352;28;20044;-87
2022/06/15 10:08:06;;;;;;;1.48;0.30;;;24.30;46.20;;;;;;5076054;28;20048;-88
2022/06/15 10:10:41;;;;;;;3.92;0.40;;;24.30;46.10;;;;;;5092755;28;20040;-88
2022/06/15 10:13:17;;;;;;;2.10;0.40;;;24.30;46.10;;;;;;5075944;28;20047;-88
2022/06/15 10:15:50;;;;;;;1.05;0.30;;;24.50;46.00;;;;;;5092683;28;20044;-88
2022/06/15 10:18:25;;;;;;;1.63;0.40;;;24.60;46.00;;;;;;5076246;28;20538;-89
2022/06/15 10:21:07;;;;;;;2.05;0.50;;;24.80;45.70;;;;;;5074528;28;20048;-83
2022/06/15 10:23:38;;;;;;;1.10;0.40;;;24.90;45.40;;;;;;5074510;28;20109;-82
2022/06/15 10:26:08;;;;;;;1.13;0.30;;;24.80;45.30;;;;;;5062794;28;20044;-83
2022/06/15 10:28:39;;;;;;;1.92;0.40;;;24.90;45.40;;;;;;5090481;28;20101;-83
2022/06/15 10:31:13;;;;;;;1.15;0.30;;;24.90;45.20;;;;;;5090367;28;20063;-83
2022/06/15 10:33:45;;;;;;;0.50;0.20;;;25.00;45.10;;;;;;5091455;28;20097;-82
2022/06/15 10:36:27;;;;;;;0.98;0.20;;;25.10;45.10;;;;;;5091476;28;20151;-86
2022/06/15 10:39:03;;;;;;;0.85;0.20;;;25.20;44.60;;;;;;5074044;28;20048;-88
2022/06/15 10:41:50;;;;;;;0.98;0.30;;;25.20;44.70;;;;;;5095069;28;20835;-88
2022/06/15 10:44:25;;;;;;;1.20;0.30;;;25.30;44.70;;;;;;5090690;28;20398;-84
2022/06/15 10:47:07;;;;;;;0.63;0.22;;;25.30;44.50;;;;;;5090970;28;20059;-84
2022/06/15 10:49:40;;;;;;;1.60;0.30;;;25.40;44.50;;;;;;5091474;28;20622;-88
2022/06/15 10:52:23;;;;;;;0.68;0.30;;;25.40;44.30;;;;;;5078618;28;20051;-87
2022/06/15 11:04:32;;;;;;;1.33;0.40;;;25.30;43.60;;;;;;5081966;28;20041;-88
2022/06/15 11:07:05;;;;;;;1.95;0.40;;;25.30;43.70;;;;;;5075154;28;20135;-89
2022/06/15 11:09:37;;;;;;;1.80;0.35;;;25.30;43.40;;;;;;5074957;28;20492;-87
2022/06/15 11:12:46;;;;;;;2.42;0.70;;;25.30;43.30;;;;;;5092320;28;20044;-87
2022/06/15 11:15:13;;;;;;;0.93;0.40;;;25.40;43.00;;;;;;5069639;28;20049;-88
2022/06/15 11:18:03;;;;;;;2.47;0.32;;;25.40;42.90;;;;;;5092051;28;20046;-88
2022/06/15 11:20:48;;;;;;;1.90;0.35;;;25.50;42.70;;;;;;5075354;28;20079;-89
2022/06/15 11:23:39;;;;;;;1.38;0.35;;;25.50;42.70;;;;;;5095051;28;20051;-88
2022/06/15 11:29:45;;;;;;;1.38;0.30;;;25.60;42.50;;;;;;5086684;28;20044;-88
2022/06/15 11:32:38;;;;;;;0.65;0.30;;;25.70;42.60;;;;;;5066095;28;20049;-90
2022/06/15 11:35:12;;;;;;;1.17;0.32;;;25.80;42.50;;;;;;5076045;28;20045;-89
2022/06/15 11:38:38;;;;;;;0.50;0.20;;;25.90;42.40;;;;;;5061683;28;20075;-90
2022/06/15 11:41:52;;;;;;;1.33;0.40;;;26.00;42.30;;;;;;5076791;28;20062;-88
2022/06/15 11:44:29;;;;;;;1.23;0.30;;;26.20;42.00;;;;;;5069864;28;20056;-88
2022/06/15 11:47:15;;;;;;;0.60;0.30;;;26.40;41.90;;;;;;5080192;28;20487;-89
2022/06/15 11:49:57;;;;;;;1.23;0.38;;;26.60;41.80;;;;;;5079738;28;20067;-89
2022/06/15 11:52:59;;;;;;;0.70;0.20;;;27.00;41.40;;;;;;5086271;28;20047;-89
2022/06/15 11:55:41;;;;;;;1.75;0.30;;;27.20;41.10;;;;;;5047604;28;20043;-88
2022/06/15 11:58:59;;;;;;;0.40;0.20;;;27.50;41.00;;;;;;5061212;28;20044;-90
2022/06/15 12:02:09;;;;;;;0.50;0.30;;;28.00;40.60;;;;;;5055161;28;20636;-90
2022/06/15 12:05:11;;;;;;;0.60;0.30;;;28.30;40.20;;;;;;5059768;28;20087;-88
2022/06/15 12:08:05;;;;;;;1.33;0.30;;;28.80;40.00;;;;;;5082240;28;20146;-89
2022/06/15 12:10:54;;;;;;;1.13;0.20;;;29.00;39.60;;;;;;5035124;28;20044;-89
2022/06/15 12:13:45;;;;;;;0.63;0.30;;;29.50;39.40;;;;;;5065461;28;20504;-90
2022/06/15 12:16:39;;;;;;;0.70;0.20;;;29.90;39.20;;;;;;5066684;28;20052;-84
2022/06/15 12:19:19;;;;;;;1.65;0.25;;;30.40;38.80;;;;;;5094326;28;20043;-82
2022/06/15 12:21:56;;;;;;;1.40;0.30;;;30.70;38.40;;;;;;5086439;28;20036;-81
2022/06/15 12:24:38;;;;;;;0.85;0.22;;;31.10;38.20;;;;;;5093013;28;20040;-76
2022/06/15 12:27:41;;;;;;;0.80;0.30;;;31.40;38.10;;;;;;5094243;28;20044;-76
2022/06/15 12:30:39;;;;;;;1.52;0.40;;;31.70;37.60;;;;;;5080191;28;20051;-76
2022/06/15 12:33:23;;;;;;;1.42;0.43;;;31.70;37.60;;;;;;5092735;28;20036;-76
2022/06/15 12:35:58;;;;;;;0.75;0.30;;;31.90;37.40;;;;;;5089502;28;20073;-76
2022/06/15 12:38:32;;;;;;;1.20;0.30;;;32.10;37.30;;;;;;5086901;28;20105;-77
2022/06/15 12:44:01;;;;;;;1.23;0.30;;;32.80;36.80;;;;;;5086427;28;20094;-78
2022/06/15 12:46:29;;;;;;;0.73;0.30;;;33.00;36.50;;;;;;5076170;28;20119;-79
2022/06/15 12:49:26;;;;;;;1.00;0.30;;;33.20;37.10;;;;;;5067187;28;20051;-81
2022/06/15 12:52:21;;;;;;;0.60;0.30;;;33.50;36.00;;;;;;5072196;28;20511;-81
2022/06/15 12:55:14;;;;;;;1.58;0.30;;;33.70;35.80;;;;;;5078551;28;20118;-81
2022/06/15 12:57:55;;;;;;;0.95;0.30;;;33.70;35.70;;;;;;5084440;28;20036;-78
2022/06/15 13:00:25;;;;;;;1.15;0.20;;;33.80;35.60;;;;;;5092408;28;20463;-79
2022/06/15 13:03:29;;;;;;;0.90;0.25;;;34.10;35.60;;;;;;5075099;28;20403;-79
2022/06/15 13:06:19;;;;;;;0.85;0.20;;;34.40;34.90;;;;;;5080785;28;20133;-77
2022/06/15 13:08:57;;;;;;;0.60;0.22;;;34.50;34.60;;;;;;5088406;28;20049;-80
2022/06/15 13:11:25;;;;;;;1.05;0.20;;;34.60;34.50;;;;;;5099825;28;20497;-75
2022/06/15 13:14:14;;;;;;;1.13;0.20;;;34.80;34.20;;;;;;5091467;28;20048;-75
2022/06/15 13:16:44;;;;;;;1.67;0.30;;;35.00;33.90;;;;;;5088478;28;20036;-76
2022/06/15 13:19:39;;;;;;;1.33;0.32;;;35.20;33.80;;;;;;5093060;28;20040;-75
2022/06/15 13:22:14;;;;;;;0.57;0.25;;;35.40;33.20;;;;;;5088239;28;20111;-80
2022/06/15 13:25:04;;;;;;;1.05;0.38;;;35.00;33.40;;;;;;5071443;28;20036;-81
2022/06/15 13:28:02;;;;;;;1.40;0.28;;;35.10;33.30;;;;;;5091547;28;20056;-78
2022/06/15 13:30:51;;;;;;;1.00;0.30;;;35.20;33.10;;;;;;5074371;28;20697;-80
2022/06/15 13:33:48;;;;;;;1.38;0.22;;;35.30;32.80;;;;;;5096015;28;20043;-79
2022/06/15 13:36:22;;;;;;;1.02;0.30;;;35.40;32.80;;;;;;5079787;28;20090;-77
2022/06/15 13:38:50;;;;;;;1.08;0.40;;;35.60;32.70;;;;;;5090763;28;20472;-85
2022/06/15 13:41:25;;;;;;;1.35;0.38;;;35.60;32.30;;;;;;5090429;28;20036;-86
2022/06/15 13:43:53;;;;;;;0.77;0.25;;;35.60;32.00;;;;;;5088441;28;20055;-87
2022/06/15 13:46:33;;;;;;;1.77;0.40;;;35.60;31.90;;;;;;5088233;28;20044;-84
2022/06/15 13:49:14;;;;;;;0.50;0.30;;;35.80;31.40;;;;;;5090158;28;20048;-87
2022/06/15 13:51:54;;;;;;;0.77;0.30;;;35.90;31.50;;;;;;5090330;28;20074;-85
2022/06/15 13:54:58;;;;;;;0.80;0.30;;;36.00;31.30;;;;;;5091443;28;20044;-80
2022/06/15 13:58:00;;;;;;;0.88;0.30;;;36.10;31.10;;;;;;5081812;28;20036;-80